createdAt,value
2018-02-12T00:00:39.132Z,23.33
2018-02-12T00:03:07.367Z,19.65
2018-02-12T00:05:34.897Z,24.02
2018-02-12T00:08:02.324Z,21.52
2018-02-12T00:10:29.783Z,22.77
2018-02-12T00:12:57.271Z,25.50
2018-02-12T00:15:24.847Z,23.33
2018-02-12T00:17:52.335Z,19.30
2018-02-12T00:20:19.888Z,24.30
2018-02-12T00:22:47.368Z,20.12
2018-02-12T00:25:14.924Z,22.85
2018-02-12T00:27:42.526Z,21.27
2018-02-12T00:30:09.992Z,18.40
2018-02-12T00:32:37.542Z,17.90
2018-02-12T00:35:05.211Z,20.20
2018-02-12T00:37:32.676Z,20.23
2018-02-12T00:40:00.148Z,23.55
2018-02-12T00:42:27.631Z,20.88
2018-02-12T00:44:55.096Z,22.50
2018-02-12T00:47:22.663Z,21.10
2018-02-12T00:49:50.233Z,22.37
2018-02-12T00:52:17.696Z,20.15
2018-02-12T00:54:45.184Z,24.23
2018-02-12T00:57:12.651Z,22.77
2018-02-12T00:59:40.212Z,23.48
2018-02-12T01:02:07.684Z,21.87
2018-02-12T01:04:35.147Z,21.17
2018-02-12T01:07:02.620Z,23.38
2018-02-12T01:09:30.088Z,23.87
2018-02-12T01:11:57.556Z,21.87
2018-02-12T01:14:25.028Z,24.55
2018-02-12T01:16:52.500Z,23.92
2018-02-12T01:19:19.968Z,29.52
2018-02-12T01:21:47.445Z,25.67
2018-02-12T01:24:15.019Z,28.17
2018-02-12T01:26:42.680Z,25.95
2018-02-12T01:29:10.140Z,25.48
2018-02-12T01:31:37.624Z,28.45
2018-02-12T01:34:05.192Z,29.05
2018-02-12T01:36:32.672Z,25.52
2018-02-12T01:39:00.278Z,26.62
2018-02-12T01:41:27.703Z,26.77
2018-02-12T01:43:55.169Z,25.77
2018-02-12T01:46:22.639Z,26.87
2018-02-12T01:48:50.111Z,25.20
2018-02-12T01:51:17.584Z,25.35
2018-02-12T01:53:45.056Z,25.30
2018-02-12T01:56:12.724Z,26.50
2018-02-12T01:58:40.190Z,27.23
2018-02-12T02:01:07.648Z,25.65
2018-02-12T02:03:35.142Z,26.60
2018-02-12T02:06:02.615Z,23.33
2018-02-12T02:08:30.107Z,26.58
2018-02-12T02:10:58.351Z,26.55
2018-02-12T02:13:25.819Z,24.73
2018-02-12T02:15:53.284Z,24.60
2018-02-12T02:18:20.776Z,23.35
2018-02-12T02:20:48.266Z,27.02
2018-02-12T02:23:16.520Z,26.62
2018-02-12T02:25:43.996Z,25.53
2018-02-12T02:28:11.572Z,25.17
2018-02-12T02:30:39.039Z,23.23
2018-02-12T02:33:06.513Z,26.00
2018-02-12T02:35:33.972Z,27.20
2018-02-12T02:38:01.459Z,26.10
2018-02-12T02:40:29.016Z,27.80
2018-02-12T02:42:56.480Z,26.37
2018-02-12T02:45:38.087Z,28.52
2018-02-12T02:48:05.551Z,26.27
2018-02-12T02:50:33.235Z,29.20
2018-02-12T02:53:00.683Z,28.65
2018-02-12T02:55:28.152Z,30.10
2018-02-12T02:57:55.655Z,28.33
2018-02-12T03:00:23.115Z,27.42
2018-02-12T03:02:50.675Z,28.50
2018-02-12T03:05:18.149Z,28.30
2018-02-12T03:07:45.608Z,30.27
2018-02-12T03:10:13.066Z,31.62
2018-02-12T03:12:40.535Z,35.92
2018-02-12T03:15:08.004Z,33.03
2018-02-12T03:17:35.467Z,33.17
2018-02-12T03:20:02.957Z,33.90
2018-02-12T03:22:30.408Z,35.70
2018-02-12T03:24:57.865Z,32.10
2018-02-12T03:27:25.375Z,31.73
2018-02-12T03:29:52.852Z,27.90
2018-02-12T03:32:20.327Z,30.40
2018-02-12T03:34:47.893Z,30.00
2018-02-12T03:37:15.359Z,32.10
2018-02-12T03:39:42.920Z,30.30
2018-02-12T03:42:10.392Z,24.67
2018-02-12T03:44:37.868Z,25.88
2018-02-12T03:47:05.331Z,25.95
2018-02-12T03:49:32.804Z,23.00
2018-02-12T03:52:00.267Z,22.02
2018-02-12T03:54:27.727Z,19.83
2018-02-12T03:56:55.311Z,20.17
2018-02-12T03:59:22.772Z,20.98
2018-02-12T04:01:50.299Z,21.55
2018-02-12T04:04:17.824Z,21.30
2018-02-12T04:06:45.291Z,22.27
2018-02-12T04:09:12.860Z,19.98
2018-02-12T04:11:40.334Z,20.87
2018-02-12T04:14:07.811Z,18.17
2018-02-12T04:16:35.380Z,18.37
2018-02-12T04:19:02.836Z,17.90
2018-02-12T04:21:30.325Z,21.48
2018-02-12T04:23:57.780Z,16.30
2018-02-12T04:26:25.236Z,16.87
2018-02-12T04:28:52.832Z,15.40
2018-02-12T04:31:20.302Z,13.25
2018-02-12T04:33:47.913Z,14.07
2018-02-12T04:36:16.157Z,12.77
2018-02-12T04:38:43.620Z,11.43
2018-02-12T04:41:11.092Z,10.30
2018-02-12T04:43:38.763Z,11.48
2018-02-12T04:46:06.239Z,10.68
2018-02-12T04:48:33.696Z,9.18
2018-02-12T04:51:01.172Z,10.82
2018-02-12T04:53:28.654Z,8.20
2018-02-12T04:55:56.096Z,9.18
2018-02-12T04:58:23.563Z,10.68
2018-02-12T05:00:51.009Z,10.02
2018-02-12T05:03:18.570Z,10.30
2018-02-12T05:05:46.821Z,9.10
2018-02-12T05:08:14.387Z,10.60
2018-02-12T05:10:41.840Z,11.55
2018-02-12T05:13:09.321Z,10.40
2018-02-12T05:15:36.772Z,13.38
2018-02-12T05:18:04.227Z,12.85
2018-02-12T05:20:31.724Z,12.82
2018-02-12T05:22:59.209Z,13.32
2018-02-12T05:25:26.672Z,15.27
2018-02-12T05:27:54.133Z,14.75
2018-02-12T05:30:21.605Z,15.48
2018-02-12T05:32:49.089Z,15.95
2018-02-12T05:35:16.548Z,14.87
2018-02-12T05:37:44.032Z,15.25
2018-02-12T05:40:11.583Z,21.23
2018-02-12T05:42:39.064Z,18.58
2018-02-12T05:45:06.632Z,18.87
2018-02-12T05:47:34.093Z,19.97
2018-02-12T05:50:01.616Z,19.77
2018-02-12T05:52:29.861Z,21.65
2018-02-12T05:54:57.340Z,23.95
2018-02-12T05:57:24.800Z,22.85
2018-02-12T05:59:52.260Z,22.60
2018-02-12T06:02:20.487Z,24.70
2018-02-12T06:04:48.728Z,25.00
2018-02-12T06:07:16.184Z,22.55
2018-02-12T06:09:43.644Z,23.85
2018-02-12T06:12:11.100Z,23.52
2018-02-12T06:14:38.559Z,24.77
2018-02-12T06:17:06.052Z,22.63
2018-02-12T06:19:33.564Z,26.77
2018-02-12T06:22:01.807Z,24.98
2018-02-12T06:24:29.308Z,20.37
2018-02-12T06:26:56.776Z,21.95
2018-02-12T06:29:24.232Z,21.35
2018-02-12T06:31:51.696Z,23.17
2018-02-12T06:34:19.188Z,22.30
2018-02-12T06:36:46.684Z,21.95
2018-02-12T06:39:14.914Z,22.05
2018-02-12T06:41:42.420Z,18.00
2018-02-12T06:44:09.980Z,20.05
2018-02-12T06:46:37.497Z,20.98
2018-02-12T06:49:06.469Z,25.35
2018-02-12T06:51:34.033Z,21.30
2018-02-12T06:54:01.489Z,17.95
2018-02-12T06:56:28.972Z,19.00
2018-02-12T06:58:56.486Z,19.92
2018-02-12T07:01:24.713Z,17.23
2018-02-12T07:03:52.204Z,22.25
2018-02-12T07:06:19.688Z,21.20
2018-02-12T07:08:47.996Z,16.80
2018-02-12T07:11:16.223Z,25.45
2018-02-12T07:13:43.680Z,15.95
2018-02-12T07:16:11.230Z,21.15
2018-02-12T07:18:39.456Z,17.25
2018-02-12T07:21:06.916Z,18.60
2018-02-12T07:23:34.408Z,15.13
2018-02-12T07:26:01.887Z,20.12
2018-02-12T07:28:29.351Z,17.65
2018-02-12T07:30:56.816Z,15.65
2018-02-12T07:33:24.296Z,15.65
2018-02-12T07:35:51.768Z,14.70
2018-02-12T07:38:19.213Z,16.75
2018-02-12T07:40:46.700Z,14.00
2018-02-12T07:43:14.164Z,13.73
2018-02-12T07:45:41.645Z,14.82
2018-02-12T07:48:09.225Z,15.82
2018-02-12T07:50:36.888Z,13.27
2018-02-12T07:53:04.336Z,14.18
2018-02-12T07:55:31.804Z,11.57
2018-02-12T07:57:59.491Z,16.35
2018-02-12T08:00:26.949Z,12.90
2018-02-12T08:02:54.404Z,14.90
2018-02-12T08:05:21.867Z,14.95
2018-02-12T08:07:49.348Z,13.45
2018-02-12T08:10:16.834Z,15.60
2018-02-12T08:12:44.403Z,13.48
2018-02-12T08:15:11.865Z,14.82
2018-02-12T08:17:39.311Z,11.60
2018-02-12T08:20:06.785Z,16.33
2018-02-12T08:22:34.288Z,12.10
2018-02-12T08:25:01.760Z,11.45
2018-02-12T08:27:29.223Z,13.10
2018-02-12T08:29:56.681Z,8.95
2018-02-12T08:32:24.175Z,11.95
2018-02-12T08:34:51.626Z,10.20
2018-02-12T08:37:19.092Z,11.35
2018-02-12T08:39:46.576Z,6.93
2018-02-12T08:42:14.025Z,7.03
2018-02-12T08:44:41.485Z,7.50
2018-02-12T08:47:08.956Z,6.60
2018-02-12T08:49:36.412Z,7.55
2018-02-12T08:52:03.890Z,6.70
2018-02-12T08:54:31.384Z,6.37
2018-02-12T08:56:58.841Z,5.68
2018-02-12T08:59:26.307Z,10.23
2018-02-12T09:01:53.776Z,7.57
2018-02-12T09:04:21.268Z,8.05
2018-02-12T09:06:48.744Z,8.38
2018-02-12T09:09:16.204Z,7.43
2018-02-12T09:11:44.441Z,8.32
2018-02-12T09:14:11.900Z,9.57
2018-02-12T09:16:40.132Z,8.63
2018-02-12T09:19:07.600Z,11.85
2018-02-12T09:21:35.088Z,8.63
2018-02-12T09:24:02.557Z,10.15
2018-02-12T09:26:30.019Z,11.00
2018-02-12T09:28:57.471Z,10.75
2018-02-12T09:31:24.928Z,10.23
2018-02-12T09:33:52.397Z,11.00
2018-02-12T09:36:19.885Z,12.10
2018-02-12T09:38:47.347Z,11.57
2018-02-12T09:41:14.807Z,13.18
2018-02-12T09:43:42.311Z,12.18
2018-02-12T09:46:09.783Z,18.33
2018-02-12T09:48:37.245Z,12.95
2018-02-12T09:51:04.720Z,14.27
2018-02-12T09:53:32.180Z,14.32
2018-02-12T09:55:59.651Z,16.23
2018-02-12T09:58:27.124Z,16.40
2018-02-12T10:00:54.604Z,16.67
2018-02-12T10:03:22.068Z,16.42
2018-02-12T10:05:49.542Z,16.83
2018-02-12T10:08:17.004Z,15.30
2018-02-12T10:10:44.476Z,11.90
2018-02-12T10:13:11.951Z,17.83
2018-02-12T10:15:39.424Z,16.85
2018-02-12T10:18:06.892Z,15.85
2018-02-12T10:20:34.383Z,16.27
2018-02-12T10:23:04.010Z,13.88
2018-02-12T10:25:29.412Z,14.77
2018-02-12T10:27:56.893Z,13.70
2018-02-12T10:30:24.351Z,12.98
2018-02-12T10:32:51.916Z,13.50
2018-02-12T10:35:19.396Z,19.45
2018-02-12T10:37:46.960Z,12.02
2018-02-12T10:40:14.416Z,14.55
2018-02-12T10:42:41.904Z,17.12
2018-02-12T10:45:09.459Z,13.15
2018-02-12T10:47:36.912Z,12.32
2018-02-12T10:50:04.382Z,14.40
2018-02-12T10:52:31.839Z,12.87
2018-02-12T10:54:59.336Z,10.07
2018-02-12T10:57:26.808Z,11.55
2018-02-12T10:59:54.269Z,12.30
2018-02-12T11:02:21.788Z,12.30
2018-02-12T11:04:50.052Z,13.60
2018-02-12T11:07:17.579Z,14.80
2018-02-12T11:09:45.784Z,11.73
2018-02-12T11:12:13.267Z,14.63
2018-02-12T11:14:40.736Z,13.75
2018-02-12T11:17:08.212Z,16.83
2018-02-12T11:19:35.796Z,13.50
2018-02-12T11:22:03.289Z,11.85
2018-02-12T11:24:31.532Z,17.62
2018-02-12T11:26:59.108Z,12.63
2018-02-12T11:29:26.568Z,13.52
2018-02-12T11:31:54.040Z,12.68
2018-02-12T11:34:21.612Z,12.18
2018-02-12T11:36:49.196Z,12.87
2018-02-12T11:39:16.663Z,10.45
2018-02-12T11:41:44.240Z,9.65
2018-02-12T11:44:11.708Z,15.80
2018-02-12T11:46:39.267Z,11.60
2018-02-12T11:49:06.728Z,11.10
2018-02-12T11:51:34.184Z,17.02
2018-02-12T11:54:01.664Z,8.60
2018-02-12T11:56:29.144Z,11.50
2018-02-12T11:58:56.616Z,12.13
2018-02-12T12:01:24.088Z,9.90
2018-02-12T12:03:51.563Z,9.13
2018-02-12T12:06:19.028Z,8.77
2018-02-12T12:08:47.272Z,21.80
2018-02-12T12:11:14.789Z,41.50
2018-02-12T12:13:42.352Z,17.67
2018-02-12T12:16:09.932Z,28.85
2018-02-12T12:18:37.404Z,14.80
2018-02-12T12:21:04.872Z,10.20
2018-02-12T12:23:33.170Z,9.77
2018-02-12T12:26:00.721Z,11.40
2018-02-12T12:28:28.202Z,11.38
2018-02-12T12:30:55.672Z,12.50
2018-02-12T12:33:23.237Z,13.30
2018-02-12T12:35:50.692Z,9.83
2018-02-12T12:38:18.388Z,14.50
2018-02-12T12:40:45.864Z,19.83
2018-02-12T12:43:13.428Z,31.02
2018-02-12T12:45:40.936Z,32.50
2018-02-12T12:48:08.405Z,25.65
2018-02-12T12:50:35.940Z,11.18
2018-02-12T12:53:03.507Z,10.30
2018-02-12T12:55:31.175Z,13.85
2018-02-12T12:57:58.644Z,12.35
2018-02-12T13:00:26.104Z,8.30
2018-02-12T13:02:53.684Z,13.40
2018-02-12T13:05:21.161Z,9.70
2018-02-12T13:07:48.732Z,9.85
2018-02-12T13:10:16.216Z,16.90
2018-02-12T13:12:43.691Z,14.05
2018-02-12T13:15:11.236Z,13.98
2018-02-12T13:17:38.724Z,10.95
2018-02-12T13:20:06.280Z,10.60
2018-02-12T13:22:33.778Z,8.63
2018-02-12T13:25:01.999Z,8.02
2018-02-12T13:27:29.513Z,7.90
2018-02-12T13:29:56.988Z,10.13
2018-02-12T13:32:24.447Z,15.75
2018-02-12T13:34:51.928Z,8.48
2018-02-12T13:37:19.488Z,10.23
2018-02-12T13:39:46.948Z,12.77
2018-02-12T13:42:14.738Z,8.80
2018-02-12T13:44:42.309Z,11.63
2018-02-12T13:47:09.772Z,13.90
2018-02-12T13:49:37.344Z,10.52
2018-02-12T13:52:04.808Z,11.00
2018-02-12T13:54:32.297Z,10.98
2018-02-12T13:56:59.762Z,9.95
2018-02-12T13:59:27.224Z,9.27
2018-02-12T14:01:54.799Z,8.48
2018-02-12T14:04:22.260Z,10.95
2018-02-12T14:06:49.748Z,9.57
2018-02-12T14:09:17.223Z,8.65
2018-02-12T14:11:44.724Z,8.23
2018-02-12T14:14:12.205Z,10.70
2018-02-12T14:16:39.720Z,10.40
2018-02-12T14:19:07.294Z,7.43
2018-02-12T14:21:34.760Z,7.90
2018-02-12T14:24:02.228Z,9.85
2018-02-12T14:26:29.709Z,8.73
2018-02-12T14:28:57.265Z,7.65
2018-02-12T14:31:24.747Z,6.80
2018-02-12T14:33:52.213Z,10.13
2018-02-12T14:36:19.684Z,8.82
2018-02-12T14:38:47.199Z,6.47
2018-02-12T14:41:14.667Z,8.75
2018-02-12T14:43:42.145Z,7.82
2018-02-12T14:46:09.600Z,10.40
2018-02-12T14:48:37.831Z,9.38
2018-02-12T14:51:05.412Z,7.07
2018-02-12T14:53:32.872Z,8.18
2018-02-12T14:56:00.460Z,7.70
2018-02-12T14:58:27.943Z,10.15
2018-02-12T15:00:55.412Z,6.65
2018-02-12T15:03:22.888Z,11.52
2018-02-12T15:05:50.356Z,9.10
2018-02-12T15:08:17.837Z,11.40
2018-02-12T15:10:46.098Z,7.12
2018-02-12T15:13:13.704Z,8.00
2018-02-12T15:15:41.952Z,8.20
2018-02-12T15:18:09.412Z,8.15
2018-02-12T15:20:36.876Z,8.32
2018-02-12T15:23:04.332Z,7.80
2018-02-12T15:25:31.791Z,8.20
2018-02-12T15:27:59.305Z,6.37
2018-02-12T15:30:26.794Z,10.00
2018-02-12T15:32:54.244Z,7.70
2018-02-12T15:35:21.708Z,7.60
2018-02-12T15:37:49.297Z,8.02
2018-02-12T15:40:16.753Z,7.35
2018-02-12T15:42:44.281Z,7.30
2018-02-12T15:45:11.789Z,5.78
2018-02-12T15:47:39.264Z,6.80
2018-02-12T15:50:06.720Z,6.47
2018-02-12T15:52:34.196Z,7.93
2018-02-12T15:55:01.723Z,6.10
2018-02-12T15:57:29.182Z,9.95
2018-02-12T15:59:57.431Z,7.05
2018-02-12T16:02:24.905Z,7.15
2018-02-12T16:04:52.373Z,8.20
2018-02-12T16:07:20.628Z,5.57
2018-02-12T16:09:48.104Z,8.15
2018-02-12T16:12:15.571Z,10.32
2018-02-12T16:14:43.051Z,10.35
2018-02-12T16:17:10.545Z,8.63
2018-02-12T16:19:38.124Z,5.68
2018-02-12T16:22:05.579Z,8.00
2018-02-12T16:24:33.028Z,9.95
2018-02-12T16:27:00.496Z,9.25
2018-02-12T16:29:28.089Z,11.35
2018-02-12T16:31:55.552Z,8.82
2018-02-12T16:34:23.008Z,8.75
2018-02-12T16:36:50.484Z,8.82
2018-02-12T16:39:17.938Z,8.20
2018-02-12T16:41:45.437Z,7.23
2018-02-12T16:44:12.924Z,11.73
2018-02-12T16:46:40.384Z,7.60
2018-02-12T16:49:09.348Z,9.85
2018-02-12T16:51:36.849Z,9.93
2018-02-12T16:54:04.301Z,8.25
2018-02-12T16:56:32.553Z,10.73
2018-02-12T16:59:00.896Z,12.15
2018-02-12T17:01:28.364Z,9.80
2018-02-12T17:03:55.817Z,6.90
2018-02-12T17:06:23.305Z,9.95
2018-02-12T17:08:50.771Z,8.82
2018-02-12T17:11:18.256Z,9.52
2018-02-12T17:13:46.540Z,10.50
2018-02-12T17:16:13.996Z,11.00
2018-02-12T17:18:41.468Z,10.27
2018-02-12T17:21:08.932Z,11.87
2018-02-12T17:23:36.527Z,8.32
2018-02-12T17:26:03.996Z,12.40
2018-02-12T17:28:31.448Z,9.73
2018-02-12T17:30:58.912Z,14.13
2018-02-12T17:33:26.376Z,15.50
2018-02-12T17:35:53.832Z,9.60
2018-02-12T17:38:21.325Z,12.32
2018-02-12T17:40:48.849Z,13.82
2018-02-12T17:43:17.087Z,13.77
2018-02-12T17:45:44.548Z,9.35
2018-02-12T17:48:12.021Z,13.38
2018-02-12T17:50:39.501Z,13.20
2018-02-12T17:53:07.064Z,12.23
2018-02-12T17:55:34.557Z,9.63
2018-02-12T17:58:02.044Z,10.95
2018-02-12T18:00:30.344Z,13.10
2018-02-12T18:02:58.560Z,14.70
2018-02-12T18:05:26.069Z,12.90
2018-02-12T18:07:55.040Z,13.62
2018-02-12T18:10:22.528Z,11.43
2018-02-12T18:12:50.110Z,11.80
2018-02-12T18:15:17.684Z,13.07
2018-02-12T18:17:45.243Z,12.20
2018-02-12T18:20:12.703Z,11.70
2018-02-12T18:22:40.176Z,9.73
2018-02-12T18:25:07.656Z,12.25
2018-02-12T18:27:35.220Z,12.80
2018-02-12T18:30:02.676Z,13.88
2018-02-12T18:32:30.144Z,13.73
2018-02-12T18:34:57.615Z,11.77
2018-02-12T18:37:25.188Z,14.87
2018-02-12T18:39:52.648Z,12.40
2018-02-12T18:42:20.111Z,13.93
2018-02-12T18:44:47.616Z,11.38
2018-02-12T18:47:15.064Z,9.25
2018-02-12T18:49:42.551Z,10.30
2018-02-12T18:52:10.227Z,11.88
2018-02-12T18:54:37.688Z,16.77
2018-02-12T18:57:05.164Z,12.75
2018-02-12T18:59:32.748Z,18.37
2018-02-12T19:02:00.988Z,13.52
2018-02-12T19:04:28.518Z,16.67
2018-02-12T19:06:56.794Z,11.80
2018-02-12T19:09:24.264Z,13.18
2018-02-12T19:11:51.929Z,10.88
2018-02-12T19:14:19.406Z,12.18
2018-02-12T19:16:46.880Z,13.20
2018-02-12T19:19:14.445Z,9.82
2018-02-12T19:21:41.936Z,15.23
2018-02-12T19:24:10.166Z,12.32
2018-02-12T19:26:37.775Z,11.38
2018-02-12T19:29:05.351Z,13.75
2018-02-12T19:31:32.811Z,12.68
2018-02-12T19:34:00.395Z,10.40
2018-02-12T19:36:27.844Z,10.02
2018-02-12T19:38:55.316Z,13.55
2018-02-12T19:41:22.792Z,11.27
2018-02-12T19:43:50.277Z,11.15
2018-02-12T19:46:17.757Z,13.43
2018-02-12T19:48:45.407Z,10.23
2018-02-12T19:51:12.975Z,12.13
2018-02-12T19:53:40.440Z,8.57
2018-02-12T19:56:07.904Z,12.02
2018-02-12T19:58:35.380Z,11.80
2018-02-12T20:01:02.887Z,12.15
2018-02-12T20:03:31.280Z,11.80
2018-02-12T20:05:58.868Z,9.32
2018-02-12T20:08:26.320Z,9.73
2018-02-12T20:10:54.560Z,11.70
2018-02-12T20:13:22.049Z,12.07
2018-02-12T20:15:49.565Z,11.77
2018-02-12T20:18:17.792Z,8.85
2018-02-12T20:20:45.250Z,11.48
2018-02-12T20:23:12.796Z,12.07
2018-02-12T20:25:40.312Z,12.05
2018-02-12T20:28:07.767Z,13.43
2018-02-12T20:30:35.237Z,10.52
2018-02-12T20:33:02.732Z,15.10
2018-02-12T20:35:30.296Z,13.88
2018-02-12T20:37:57.789Z,15.13
2018-02-12T20:40:25.336Z,12.82
2018-02-12T20:42:52.792Z,14.83
2018-02-12T20:45:20.388Z,15.57
2018-02-12T20:47:47.856Z,14.98
2018-02-12T20:50:15.315Z,12.35
2018-02-12T20:52:42.788Z,10.75
2018-02-12T20:55:10.356Z,11.93
2018-02-12T20:57:37.819Z,15.90
2018-02-12T21:00:05.288Z,11.67
2018-02-12T21:02:32.752Z,10.40
2018-02-12T21:05:00.289Z,15.02
2018-02-12T21:07:27.927Z,16.15
2018-02-12T21:09:56.160Z,12.30
2018-02-12T21:12:23.619Z,15.68
2018-02-12T21:14:51.114Z,15.80
2018-02-12T21:17:18.600Z,14.73
2018-02-12T21:19:46.075Z,18.87
2018-02-12T21:24:52.125Z,14.13
2018-02-12T21:27:20.377Z,17.90
2018-02-12T21:29:47.931Z,16.12
2018-02-12T21:32:15.404Z,14.90
2018-02-12T21:34:42.964Z,16.58
2018-02-12T21:37:10.451Z,14.65
2018-02-12T21:39:37.916Z,16.23
2018-02-12T21:42:05.403Z,17.62
2018-02-12T21:44:32.964Z,19.45
2018-02-12T21:47:00.416Z,18.05
2018-02-12T21:49:27.880Z,26.55
2018-02-12T21:51:55.348Z,16.12
2018-02-12T21:54:22.811Z,17.83
2018-02-12T21:56:50.314Z,23.40
2018-02-12T21:59:17.885Z,23.90
2018-02-12T22:01:45.549Z,22.40
2018-02-12T22:04:13.016Z,19.10
2018-02-12T22:06:40.475Z,21.02
2018-02-12T22:09:07.952Z,20.23
2018-02-12T22:11:35.428Z,23.30
2018-02-12T22:14:02.888Z,26.35
2018-02-12T22:16:30.376Z,22.27
2018-02-12T22:18:57.832Z,23.45
2018-02-12T22:21:25.304Z,22.40
2018-02-12T22:23:52.777Z,25.48
2018-02-12T22:26:20.239Z,28.23
2018-02-12T22:28:47.705Z,25.20
2018-02-12T22:31:15.161Z,25.30
2018-02-12T22:33:42.664Z,27.20
2018-02-12T22:36:10.224Z,26.85
2018-02-12T22:38:37.795Z,23.87
2018-02-12T22:41:05.252Z,25.10
2018-02-12T22:43:32.712Z,26.93
2018-02-12T22:46:00.181Z,24.48
2018-02-12T22:48:27.652Z,27.80
2018-02-12T22:50:55.120Z,25.58
2018-02-12T22:53:22.584Z,27.50
2018-02-12T22:55:50.079Z,24.15
2018-02-12T22:58:17.540Z,27.73
2018-02-12T23:00:44.996Z,24.77
2018-02-12T23:03:12.488Z,21.90
2018-02-12T23:05:39.960Z,19.00
2018-02-12T23:08:07.527Z,31.37
2018-02-12T23:10:35.200Z,23.52
2018-02-12T23:13:02.676Z,30.03
2018-02-12T23:15:33.996Z,25.52
2018-02-12T23:18:01.527Z,23.05
2018-02-12T23:20:29.077Z,25.90
2018-02-12T23:22:56.527Z,25.85
2018-02-12T23:25:24.016Z,24.48
2018-02-12T23:27:51.468Z,23.27
2018-02-12T23:30:18.962Z,22.60
2018-02-12T23:32:46.432Z,24.23
2018-02-12T23:35:14.002Z,21.65
2018-02-12T23:37:41.565Z,24.98
2018-02-12T23:40:09.029Z,19.50
2018-02-12T23:42:36.507Z,20.95
2018-02-12T23:45:03.988Z,22.02
2018-02-12T23:47:31.476Z,21.92
2018-02-12T23:50:00.020Z,21.77
2018-02-12T23:52:27.510Z,22.95
2018-02-12T23:54:55.096Z,19.93
2018-02-12T23:57:22.655Z,21.08
2018-02-12T23:59:50.131Z,19.12
